createdAt,value
2023-04-18T00:00:50.713Z,103593.28
2023-04-18T00:01:52.862Z,103600.44
2023-04-18T00:02:55.760Z,103599.53
2023-04-18T00:03:58.109Z,103608.47
2023-04-18T00:05:00.219Z,103604.84
2023-04-18T00:06:02.360Z,103592.84
2023-04-18T00:07:04.174Z,103610.34
2023-04-18T00:08:05.921Z,103607.66
2023-04-18T00:09:07.824Z,103605.81
2023-04-18T00:10:09.994Z,103608.56
2023-04-18T00:11:11.767Z,103612.16
2023-04-18T00:12:13.753Z,103594.75
2023-04-18T00:13:18.427Z,103599.75
2023-04-18T00:14:20.809Z,103610.34
2023-04-18T00:15:22.656Z,103605.91
2023-04-18T00:16:24.522Z,103601.47
2023-04-18T00:17:27.736Z,103598.03
2023-04-18T00:18:29.620Z,103604.16
2023-04-18T00:19:31.417Z,103598.97
2023-04-18T00:20:33.229Z,103599.84
2023-04-18T00:21:36.131Z,103597.19
2023-04-18T00:22:42.647Z,103599.94
2023-04-18T00:23:46.128Z,103598.03
2023-04-18T00:24:49.828Z,103591.09
2023-04-18T00:25:51.666Z,103608.75
2023-04-18T00:26:53.470Z,103590.31
2023-04-18T00:27:55.329Z,103606.19
2023-04-18T00:28:58.964Z,103602.63
2023-04-18T00:30:00.769Z,103608.94
2023-04-18T00:31:03.087Z,103611.59
2023-04-18T00:32:06.993Z,103594.91
2023-04-18T00:33:09.002Z,103602.72
2023-04-18T00:34:10.974Z,103605.41
2023-04-18T00:35:12.856Z,103602.72
2023-04-18T00:36:14.786Z,103602.78
2023-04-18T00:37:16.704Z,103578.81
2023-04-18T00:38:18.566Z,103611.78
2023-04-18T00:39:22.943Z,103578.91
2023-04-18T00:40:25.622Z,103616.19
2023-04-18T00:41:28.424Z,103609.44
2023-04-18T00:42:30.460Z,103613.63
2023-04-18T00:43:35.091Z,103612.72
2023-04-18T00:44:37.022Z,103618.88
2023-04-18T00:45:38.891Z,103617.25
2023-04-18T00:46:40.890Z,103617.25
2023-04-18T00:47:43.163Z,103612.84
2023-04-18T00:48:45.184Z,103616.38
2023-04-18T00:49:48.658Z,103605.13
2023-04-18T00:50:50.778Z,103611.94
2023-04-18T00:51:54.744Z,103604.44
2023-04-18T00:52:57.026Z,103617.31
2023-04-18T00:53:58.852Z,103618.28
2023-04-18T00:55:01.317Z,103610.75
2023-04-18T00:56:03.632Z,103624.50
2023-04-18T00:57:05.923Z,103604.59
2023-04-18T00:58:08.249Z,103615.88
2023-04-18T00:59:11.233Z,103613.84
2023-04-18T01:00:15.170Z,103608.78
2023-04-18T01:01:18.201Z,103616.53
2023-04-18T01:02:20.318Z,103604.44
2023-04-18T01:03:23.058Z,103615.69
2023-04-18T01:04:25.070Z,103615.75
2023-04-18T01:05:27.227Z,103623.81
2023-04-18T01:06:29.570Z,103622.97
2023-04-18T01:07:33.505Z,103617.75
2023-04-18T01:08:36.437Z,103624.75
2023-04-18T01:09:38.541Z,103621.13
2023-04-18T01:10:40.670Z,103605.53
2023-04-18T01:11:43.126Z,103626.59
2023-04-18T01:12:45.044Z,103621.22
2023-04-18T01:14:06.947Z,103626.41
2023-04-18T01:15:11.592Z,103621.91
2023-04-18T01:16:13.426Z,103625.53
2023-04-18T01:17:16.304Z,103614.44
2023-04-18T01:18:19.282Z,103631.06
2023-04-18T01:19:21.536Z,103632.97
2023-04-18T01:20:23.461Z,103632.03
2023-04-18T01:21:26.913Z,103630.22
2023-04-18T01:22:30.932Z,103632.09
2023-04-18T01:23:32.855Z,103627.59
2023-04-18T01:24:35.150Z,103629.50
2023-04-18T01:25:37.401Z,103618.97
2023-04-18T01:26:39.575Z,103626.91
2023-04-18T01:27:41.477Z,103630.47
2023-04-18T01:28:43.412Z,103631.41
2023-04-18T01:29:45.653Z,103629.56
2023-04-18T01:30:47.440Z,103635.03
2023-04-18T01:31:49.247Z,103630.53
2023-04-18T01:32:51.206Z,103629.69
2023-04-18T01:33:53.046Z,103632.38
2023-04-18T01:34:55.000Z,103632.44
2023-04-18T01:35:56.966Z,103638.69
2023-04-18T01:36:59.304Z,103622.22
2023-04-18T01:38:01.357Z,103621.19
2023-04-18T01:39:03.693Z,103633.47
2023-04-18T01:40:06.138Z,103636.00
2023-04-18T01:41:07.942Z,103636.94
2023-04-18T01:42:09.905Z,103635.22
2023-04-18T01:43:12.543Z,103643.16
2023-04-18T01:44:14.810Z,103637.78
2023-04-18T01:45:17.348Z,103645.06
2023-04-18T01:46:20.442Z,103623.09
2023-04-18T01:47:22.232Z,103646.78
2023-04-18T01:48:24.082Z,103648.69
2023-04-18T01:49:25.933Z,103654.03
2023-04-18T01:50:27.727Z,103653.19
2023-04-18T01:51:29.572Z,103656.72
2023-04-18T01:52:31.554Z,103656.84
2023-04-18T01:53:33.508Z,103653.19
2023-04-18T01:54:35.573Z,103660.47
2023-04-18T01:55:37.418Z,103655.94
2023-04-18T01:56:39.321Z,103653.38
2023-04-18T01:57:41.292Z,103649.03
2023-04-18T01:58:44.245Z,103654.31
2023-04-18T01:59:47.700Z,103657.78
2023-04-18T02:00:52.598Z,103659.69
2023-04-18T02:01:55.086Z,103653.53
2023-04-18T02:02:59.793Z,103647.28
2023-04-18T02:04:01.798Z,103643.94
2023-04-18T02:05:03.766Z,103653.38
2023-04-18T02:06:06.232Z,103649.91
2023-04-18T02:07:08.168Z,103649.44
2023-04-18T02:08:11.760Z,103655.25
2023-04-18T02:09:13.630Z,103647.56
2023-04-18T02:10:18.215Z,103657.06
2023-04-18T02:11:20.126Z,103652.66
2023-04-18T02:12:22.140Z,103652.66
2023-04-18T02:13:25.140Z,103658.13
2023-04-18T02:14:28.229Z,103657.16
2023-04-18T02:15:30.334Z,103655.44
2023-04-18T02:16:32.238Z,103660.88
2023-04-18T02:17:35.664Z,103663.53
2023-04-18T02:18:40.207Z,103664.44
2023-04-18T02:19:42.044Z,103659.06
2023-04-18T02:20:44.158Z,103659.19
2023-04-18T02:21:46.032Z,103669.84
2023-04-18T02:22:49.565Z,103655.72
2023-04-18T02:23:51.684Z,103665.38
2023-04-18T02:24:56.674Z,103673.41
2023-04-18T02:25:58.437Z,103670.72
2023-04-18T02:27:00.929Z,103670.72
2023-04-18T02:28:02.792Z,103652.28
2023-04-18T02:29:06.305Z,103669.84
2023-04-18T02:30:08.670Z,103670.03
2023-04-18T02:31:15.198Z,103679.78
2023-04-18T02:32:17.099Z,103666.38
2023-04-18T02:33:19.636Z,103669.00
2023-04-18T02:34:21.459Z,103672.59
2023-04-18T02:35:24.183Z,103671.81
2023-04-18T02:36:28.166Z,103666.47
2023-04-18T02:37:30.071Z,103668.34
2023-04-18T02:38:31.974Z,103668.28
2023-04-18T02:39:33.775Z,103664.72
2023-04-18T02:40:35.623Z,103670.97
2023-04-18T02:41:39.327Z,103671.91
2023-04-18T02:42:41.279Z,103673.66
2023-04-18T02:43:43.316Z,103665.78
2023-04-18T02:44:45.404Z,103671.03
2023-04-18T02:45:47.312Z,103670.19
2023-04-18T02:46:49.681Z,103662.47
2023-04-18T02:47:55.982Z,103670.25
2023-04-18T02:48:58.531Z,103679.06
2023-04-18T02:50:00.471Z,103680.91
2023-04-18T02:51:04.714Z,103685.38
2023-04-18T02:52:09.078Z,103679.06
2023-04-18T02:53:11.086Z,103682.69
2023-04-18T02:54:28.565Z,103682.53
2023-04-18T02:55:37.326Z,103684.38
2023-04-18T02:56:40.229Z,103666.16
2023-04-18T02:57:51.169Z,103688.84
2023-04-18T02:59:11.573Z,103685.16
2023-04-18T03:00:33.356Z,103685.09
2023-04-18T03:01:40.961Z,103679.84
2023-04-18T03:02:48.180Z,103679.97
2023-04-18T03:04:01.378Z,103686.16
2023-04-18T03:05:15.367Z,103690.69
2023-04-18T03:06:17.445Z,103683.66
2023-04-18T03:07:19.245Z,103690.06
2023-04-18T03:08:22.339Z,103691.84
2023-04-18T03:09:25.303Z,103689.28
2023-04-18T03:10:31.686Z,103691.84
2023-04-18T03:11:33.606Z,103692.81
2023-04-18T03:12:35.691Z,103684.88
2023-04-18T03:13:38.788Z,103695.50
2023-04-18T03:14:40.798Z,103686.25
2023-04-18T03:15:42.888Z,103691.22
2023-04-18T03:16:45.616Z,103700.16
2023-04-18T03:17:51.575Z,103692.91
2023-04-18T03:18:56.356Z,103705.41
2023-04-18T03:19:58.498Z,103702.75
2023-04-18T03:21:00.811Z,103705.53
2023-04-18T03:22:04.280Z,103708.19
2023-04-18T03:23:06.655Z,103699.28
2023-04-18T03:24:12.248Z,103704.91
2023-04-18T03:25:16.184Z,103705.59
2023-04-18T03:26:24.642Z,103697.53
2023-04-18T03:27:27.403Z,103703.78
2023-04-18T03:28:29.392Z,103710.00
2023-04-18T03:29:31.405Z,103706.53
2023-04-18T03:30:33.640Z,103704.72
2023-04-18T03:31:36.477Z,103712.84
2023-04-18T03:32:38.650Z,103708.25
2023-04-18T03:33:42.428Z,103709.22
2023-04-18T03:34:45.568Z,103707.41
2023-04-18T03:35:47.405Z,103710.16
2023-04-18T03:36:49.539Z,103709.31
2023-04-18T03:37:52.097Z,103710.16
2023-04-18T03:38:59.217Z,103717.25
2023-04-18T03:40:01.830Z,103709.22
2023-04-18T03:41:05.422Z,103702.44
2023-04-18T03:42:11.758Z,103689.59
2023-04-18T03:43:17.019Z,103714.56
2023-04-18T03:44:18.940Z,103713.72
2023-04-18T03:45:20.944Z,103713.78
2023-04-18T03:46:24.604Z,103716.47
2023-04-18T03:47:31.547Z,103700.78
2023-04-18T03:48:37.302Z,103715.34
2023-04-18T03:52:49.049Z,103719.34
2023-04-18T03:53:52.571Z,103717.59
2023-04-18T03:54:54.452Z,103712.41
2023-04-18T03:56:00.191Z,103729.47
2023-04-18T03:57:16.330Z,103730.66
2023-04-18T03:58:23.609Z,103729.53
2023-04-18T03:59:26.711Z,103723.03
2023-04-18T04:02:04.006Z,103727.91
2023-04-18T04:03:07.019Z,103722.47
2023-04-18T04:04:14.125Z,103737.81
2023-04-18T04:05:34.800Z,103733.47
2023-04-18T04:06:36.730Z,103735.03
2023-04-18T04:07:38.869Z,103720.03
2023-04-18T04:08:42.297Z,103734.50
2023-04-18T04:09:44.423Z,103729.81
2023-04-18T04:10:46.783Z,103746.31
2023-04-18T04:11:48.643Z,103747.88
2023-04-18T04:12:51.506Z,103741.25
2023-04-18T04:13:53.732Z,103740.16
2023-04-18T04:15:01.040Z,103745.06
2023-04-18T04:16:03.180Z,103747.31
2023-04-18T04:17:05.613Z,103748.84
2023-04-18T04:18:09.008Z,103746.84
2023-04-18T04:19:14.993Z,103748.41
2023-04-18T04:20:29.827Z,103749.56
2023-04-18T04:21:39.204Z,103751.69
2023-04-18T04:22:44.258Z,103750.84
2023-04-18T04:23:46.412Z,103747.78
2023-04-18T04:25:00.811Z,103755.47
2023-04-18T04:26:09.199Z,103753.56
2023-04-18T04:27:19.161Z,103755.84
2023-04-18T04:28:26.347Z,103751.50
2023-04-18T04:29:33.677Z,103751.81
2023-04-18T04:30:35.820Z,103749.09
2023-04-18T04:31:37.797Z,103753.53
2023-04-18T04:32:39.659Z,103746.41
2023-04-18T04:33:42.691Z,103753.16
2023-04-18T04:34:50.915Z,103752.97
2023-04-18T04:35:54.297Z,103762.56
2023-04-18T04:36:56.357Z,103752.75
2023-04-18T04:38:01.668Z,103755.19
2023-04-18T04:39:11.822Z,103757.69
2023-04-18T04:40:34.948Z,103758.91
2023-04-18T04:41:44.146Z,103753.72
2023-04-18T04:42:49.154Z,103762.56
2023-04-18T04:43:56.998Z,103759.69
2023-04-18T04:45:03.743Z,103753.53
2023-04-18T04:46:07.561Z,103746.41
2023-04-18T04:47:09.691Z,103761.41
2023-04-18T04:48:14.077Z,103759.50
2023-04-18T04:49:16.824Z,103755.94
2023-04-18T04:50:19.027Z,103761.25
2023-04-18T04:51:20.936Z,103762.97
2023-04-18T04:52:22.775Z,103756.81
2023-04-18T04:53:26.380Z,103764.69
2023-04-18T04:54:28.352Z,103760.28
2023-04-18T04:55:30.376Z,103767.19
2023-04-18T04:56:32.791Z,103764.59
2023-04-18T04:57:35.831Z,103729.13
2023-04-18T04:58:45.304Z,103774.19
2023-04-18T04:59:51.194Z,103772.19
2023-04-18T05:00:53.677Z,103771.44
2023-04-18T05:01:55.980Z,103731.63
2023-04-18T05:02:57.993Z,103777.66
2023-04-18T05:04:01.725Z,103775.72
2023-04-18T05:05:03.902Z,103762.66
2023-04-18T05:06:06.071Z,103765.47
2023-04-18T05:07:07.875Z,103777.59
2023-04-18T05:08:09.789Z,103772.38
2023-04-18T05:09:11.638Z,103779.31
2023-04-18T05:10:13.512Z,103766.03
2023-04-18T05:11:16.075Z,103771.03
2023-04-18T05:12:17.905Z,103783.41
2023-04-18T05:13:19.734Z,103775.34
2023-04-18T05:14:21.603Z,103784.78
2023-04-18T05:15:24.237Z,103788.25
2023-04-18T05:16:26.646Z,103780.94
2023-04-18T05:17:28.526Z,103779.97
2023-04-18T05:18:30.573Z,103796.63
2023-04-18T05:19:33.106Z,103784.72
2023-04-18T05:20:34.884Z,103793.38
2023-04-18T05:21:36.762Z,103782.59
2023-04-18T05:22:38.653Z,103789.31
2023-04-18T05:23:40.547Z,103785.66
2023-04-18T05:24:42.366Z,103795.06
2023-04-18T05:25:44.203Z,103792.16
2023-04-18T05:26:46.081Z,103798.03
2023-04-18T05:27:48.022Z,103796.19
2023-04-18T05:28:49.874Z,103800.97
2023-04-18T05:29:51.712Z,103793.75
2023-04-18T05:31:01.055Z,103793.34
2023-04-18T05:32:03.398Z,103799.22
2023-04-18T05:33:05.443Z,103799.84
2023-04-18T05:34:07.278Z,103802.91
2023-04-18T05:35:09.453Z,103800.88
2023-04-18T05:36:11.332Z,103801.66
2023-04-18T05:37:13.189Z,103805.81
2023-04-18T05:38:15.105Z,103809.13
2023-04-18T05:39:17.152Z,103800.06
2023-04-18T05:40:18.948Z,103801.81
2023-04-18T05:41:20.849Z,103802.34
2023-04-18T05:42:23.767Z,103808.13
2023-04-18T05:43:25.835Z,103801.00
2023-04-18T05:44:27.717Z,103806.06
2023-04-18T05:45:29.611Z,103766.75
2023-04-18T05:46:31.497Z,103802.84
2023-04-18T05:47:33.756Z,103807.81
2023-04-18T05:48:35.790Z,103797.16
2023-04-18T05:49:37.591Z,103810.97
2023-04-18T05:50:39.493Z,103803.50
2023-04-18T05:51:41.338Z,103806.13
2023-04-18T05:52:43.227Z,103797.28
2023-04-18T05:53:45.000Z,103801.34
2023-04-18T05:54:46.862Z,103807.34
2023-04-18T05:55:48.961Z,103800.97
2023-04-18T05:56:51.202Z,103794.81
2023-04-18T05:57:53.069Z,103802.69
2023-04-18T05:58:54.871Z,103800.75
2023-04-18T05:59:56.673Z,103802.47
2023-04-18T06:00:58.496Z,103797.69
2023-04-18T06:02:00.468Z,103806.56
2023-04-18T06:03:02.642Z,103810.03
2023-04-18T06:04:05.138Z,103808.97
2023-04-18T06:05:08.098Z,103802.84
2023-04-18T06:06:10.861Z,103807.03
2023-04-18T06:07:12.794Z,103799.69
2023-04-18T06:08:14.593Z,103809.53
2023-04-18T06:09:16.370Z,103800.66
2023-04-18T06:10:18.211Z,103803.06
2023-04-18T06:11:22.749Z,103804.13
2023-04-18T06:13:26.348Z,103808.13
2023-04-18T06:14:28.751Z,103808.47
2023-04-18T06:15:30.633Z,103809.84
2023-04-18T06:16:32.687Z,103809.75
2023-04-18T06:17:35.047Z,103800.00
2023-04-18T06:18:37.036Z,103809.63
2023-04-18T06:19:39.735Z,103811.34
2023-04-18T06:20:43.953Z,103812.22
2023-04-18T06:21:46.161Z,103814.06
2023-04-18T06:22:48.004Z,103804.97
2023-04-18T06:23:49.957Z,103813.97
2023-04-18T06:24:51.887Z,103805.94
2023-04-18T06:25:53.873Z,103812.00
2023-04-18T06:26:58.502Z,103809.19
2023-04-18T06:28:00.447Z,103812.63
2023-04-18T06:29:02.349Z,103812.63
2023-04-18T06:30:05.492Z,103813.53
2023-04-18T06:31:08.674Z,103811.66
2023-04-18T06:32:10.532Z,103821.53
2023-04-18T06:33:12.336Z,103816.97
2023-04-18T06:34:14.431Z,103817.06
2023-04-18T06:35:16.818Z,103813.53
2023-04-18T06:36:19.146Z,103819.59
2023-04-18T06:37:21.232Z,103819.59
2023-04-18T06:38:23.126Z,103821.31
2023-04-18T06:39:25.128Z,103822.16
2023-04-18T06:40:27.134Z,103813.44
2023-04-18T06:41:28.947Z,103815.16
2023-04-18T06:42:30.819Z,103822.28
2023-04-18T06:43:32.939Z,103826.72
2023-04-18T06:44:36.401Z,103816.88
2023-04-18T06:45:38.610Z,103805.31
2023-04-18T06:46:40.545Z,103822.06
2023-04-18T06:47:42.372Z,103824.00
2023-04-18T06:48:44.184Z,103824.75
2023-04-18T06:49:46.090Z,103819.59
2023-04-18T06:50:47.956Z,103818.59
2023-04-18T06:51:49.715Z,103828.31
2023-04-18T06:52:51.483Z,103828.44
2023-04-18T06:53:53.867Z,103830.16
2023-04-18T06:54:55.706Z,103833.63
2023-04-18T06:55:57.584Z,103829.28
2023-04-18T06:56:59.784Z,103828.44
2023-04-18T06:58:01.602Z,103826.81
2023-04-18T06:59:03.540Z,103833.84
2023-04-18T07:00:06.028Z,103831.00
2023-04-18T07:01:07.855Z,103825.16
2023-04-18T07:02:09.713Z,103838.16
2023-04-18T07:03:13.640Z,103838.06
2023-04-18T07:04:15.738Z,103833.72
2023-04-18T07:05:18.008Z,103834.47
2023-04-18T07:06:20.001Z,103841.59
2023-04-18T07:07:21.931Z,103834.47
2023-04-18T07:08:23.722Z,103830.16
2023-04-18T07:09:25.536Z,103837.28
2023-04-18T07:10:27.394Z,103842.47
2023-04-18T07:11:29.995Z,103847.88
2023-04-18T07:12:31.846Z,103835.44
2023-04-18T07:13:33.697Z,103841.59
2023-04-18T07:14:35.640Z,103837.06
2023-04-18T07:15:37.800Z,103845.19
2023-04-18T07:16:39.821Z,103848.72
2023-04-18T07:17:41.768Z,103821.84
2023-04-18T07:18:43.598Z,103843.31
2023-04-18T07:19:45.706Z,103843.31
2023-04-18T07:20:47.486Z,103856.75
2023-04-18T07:21:49.296Z,103849.59
2023-04-18T07:22:51.181Z,103843.31
2023-04-18T07:23:52.971Z,103854.78
2023-04-18T07:24:54.847Z,103845.94
2023-04-18T07:25:58.706Z,103844.28
2023-04-18T07:27:01.566Z,103849.47
2023-04-18T07:28:03.482Z,103849.25
2023-04-18T07:29:05.460Z,103852.09
2023-04-18T07:30:07.858Z,103835.56
2023-04-18T07:31:11.605Z,103847.66
2023-04-18T07:32:13.585Z,103852.09
2023-04-18T07:33:15.431Z,103847.66
2023-04-18T07:34:17.931Z,103856.31
2023-04-18T07:35:19.905Z,103849.38
2023-04-18T07:36:21.821Z,103861.69
2023-04-18T07:37:23.963Z,103859.00
2023-04-18T07:38:27.049Z,103857.16
2023-04-18T07:39:28.956Z,103852.72
2023-04-18T07:40:30.870Z,103853.69
2023-04-18T07:41:33.340Z,103852.84
2023-04-18T07:42:35.148Z,103847.44
2023-04-18T07:43:38.651Z,103852.84
2023-04-18T07:44:40.523Z,103858.88
2023-04-18T07:45:43.433Z,103862.47
2023-04-18T07:46:45.402Z,103862.47
2023-04-18T07:47:47.981Z,103857.06
2023-04-18T07:48:50.503Z,103862.34
2023-04-18T07:49:52.330Z,103851.53
2023-04-18T07:50:54.339Z,103856.06
2023-04-18T07:51:56.174Z,103852.63
2023-04-18T07:52:58.046Z,103857.81
2023-04-18T07:53:59.920Z,103857.81
2023-04-18T07:55:01.737Z,103858.69
2023-04-18T07:56:03.686Z,103852.63
2023-04-18T07:57:05.542Z,103856.06
2023-04-18T07:58:07.385Z,103859.53
2023-04-18T07:59:09.166Z,103865.81
2023-04-18T08:00:12.529Z,103861.47
2023-04-18T08:01:18.680Z,103863.13
2023-04-18T08:02:21.388Z,103864.84
2023-04-18T08:03:23.616Z,103862.00
2023-04-18T08:04:28.232Z,103868.41
2023-04-18T08:05:31.786Z,103859.31
2023-04-18T08:06:34.834Z,103862.25
2023-04-18T08:07:37.133Z,103855.00
2023-04-18T08:08:39.041Z,103867.41
2023-04-18T08:09:40.872Z,103861.03
2023-04-18T08:10:42.740Z,103861.03
2023-04-18T08:11:44.570Z,103863.13
2023-04-18T08:12:46.444Z,103858.56
2023-04-18T08:13:48.251Z,103861.25
2023-04-18T08:14:50.448Z,103857.38
2023-04-18T08:15:52.379Z,103855.63
2023-04-18T08:16:54.241Z,103853.06
2023-04-18T08:17:56.260Z,103864.72
2023-04-18T08:18:58.081Z,103854.88
2023-04-18T08:20:00.915Z,103859.97
2023-04-18T08:21:02.780Z,103868.94
2023-04-18T08:22:12.270Z,103859.44
2023-04-18T08:23:14.884Z,103856.50
2023-04-18T08:24:16.712Z,103867.84
2023-04-18T08:25:18.566Z,103861.03
2023-04-18T08:26:20.946Z,103852.84
2023-04-18T08:27:22.768Z,103864.28
2023-04-18T08:28:24.630Z,103860.81
2023-04-18T08:29:27.264Z,103857.38
2023-04-18T08:30:29.231Z,103860.72
2023-04-18T08:31:31.836Z,103860.81
2023-04-18T08:32:33.938Z,103854.34
2023-04-18T08:33:35.781Z,103852.72
2023-04-18T08:34:38.167Z,103851.00
2023-04-18T08:35:40.016Z,103856.91
2023-04-18T08:36:41.810Z,103857.13
2023-04-18T08:37:43.929Z,103859.63
2023-04-18T08:38:45.727Z,103864.06
2023-04-18T08:39:47.488Z,103854.34
2023-04-18T08:40:49.446Z,103851.72
2023-04-18T08:42:00.144Z,103867.72
2023-04-18T08:43:05.011Z,103862.09
2023-04-18T08:44:07.418Z,103857.56
2023-04-18T08:45:09.630Z,103851.72
2023-04-18T08:46:11.807Z,103856.91
2023-04-18T08:47:14.763Z,103861.25
2023-04-18T08:48:17.698Z,103855.19
2023-04-18T08:49:22.673Z,103849.03
2023-04-18T08:50:24.558Z,103862.97
2023-04-18T08:51:30.619Z,103860.38
2023-04-18T08:52:34.332Z,103852.03
2023-04-18T08:53:36.223Z,103850.44
2023-04-18T08:54:42.058Z,103857.56
2023-04-18T08:55:44.566Z,103853.25
2023-04-18T08:56:46.730Z,103858.44
2023-04-18T08:57:50.418Z,103862.09
2023-04-18T08:58:52.316Z,103855.84
2023-04-18T08:59:55.395Z,103863.84
2023-04-18T09:00:57.360Z,103860.38
2023-04-18T09:02:01.629Z,103858.66
2023-04-18T09:03:04.298Z,103860.16
2023-04-18T09:04:06.425Z,103862.00
2023-04-18T09:05:19.727Z,103867.28
2023-04-18T09:06:22.102Z,103871.72
2023-04-18T09:07:30.676Z,103869.00
2023-04-18T09:08:32.512Z,103869.22
2023-04-18T09:09:50.705Z,103864.81
2023-04-18T09:10:52.801Z,103857.44
2023-04-18T09:12:08.306Z,103857.22
2023-04-18T09:13:10.254Z,103859.94
2023-04-18T09:14:26.014Z,103853.78
2023-04-18T09:15:29.367Z,103864.28
2023-04-18T09:16:46.885Z,103865.34
2023-04-18T09:17:53.097Z,103868.72
2023-04-18T09:19:14.511Z,103865.94
2023-04-18T09:20:47.632Z,103866.22
2023-04-18T09:22:01.965Z,103866.47
2023-04-18T09:23:06.048Z,103859.31
2023-04-18T09:24:21.166Z,103867.97
2023-04-18T09:25:39.845Z,103868.41
2023-04-18T09:26:43.956Z,103864.06
2023-04-18T09:27:46.136Z,103858.19
2023-04-18T09:28:53.964Z,103854.75
2023-04-18T09:29:57.793Z,103867.88
2023-04-18T09:31:15.531Z,103865.34
2023-04-18T09:32:27.114Z,103862.34
2023-04-18T09:33:34.001Z,103865.94
2023-04-18T09:34:42.525Z,103858.34
2023-04-18T09:35:44.505Z,103866.91
2023-04-18T09:36:46.337Z,103859.94
2023-04-18T09:37:51.247Z,103868.84
2023-04-18T09:38:56.208Z,103874.25
2023-04-18T09:39:58.740Z,103860.63
2023-04-18T09:41:15.812Z,103863.31
2023-04-18T09:42:18.491Z,103861.38
2023-04-18T09:43:21.409Z,103866.91
2023-04-18T09:44:23.177Z,103863.31
2023-04-18T09:45:25.680Z,103866.03
2023-04-18T09:46:27.860Z,103872.50
2023-04-18T09:47:30.269Z,103876.84
2023-04-18T09:48:32.124Z,103884.09
2023-04-18T09:49:34.012Z,103876.00
2023-04-18T09:50:36.768Z,103871.66
2023-04-18T09:51:39.729Z,103876.00
2023-04-18T09:52:42.950Z,103876.00
2023-04-18T09:53:47.504Z,103876.00
2023-04-18T09:54:58.665Z,103870.47
2023-04-18T09:56:01.670Z,103867.75
2023-04-18T09:57:08.280Z,103874.03
2023-04-18T09:58:11.527Z,103873.81
2023-04-18T09:59:21.632Z,103872.94
2023-04-18T10:00:26.652Z,103869.25
2023-04-18T10:01:29.873Z,103875.63
2023-04-18T10:02:41.232Z,103874.88
2023-04-18T10:03:47.393Z,103866.91
2023-04-18T10:04:54.310Z,103880.94
2023-04-18T10:05:57.752Z,103880.19
2023-04-18T10:07:00.877Z,103882.91
2023-04-18T10:08:03.743Z,103881.16
2023-04-18T10:09:06.452Z,103879.44
2023-04-18T10:10:08.758Z,103881.28
2023-04-18T10:11:11.104Z,103880.50
2023-04-18T10:12:13.582Z,103888.53
2023-04-18T10:13:18.685Z,103890.25
2023-04-18T10:14:22.777Z,103880.63
2023-04-18T10:15:29.635Z,103882.16
2023-04-18T10:16:34.835Z,103879.44
2023-04-18T10:18:00.240Z,103883.13
2023-04-18T10:19:26.248Z,103880.59
2023-04-18T10:20:30.151Z,103882.44
2023-04-18T10:21:32.170Z,103880.81
2023-04-18T10:22:35.455Z,103881.16
2023-04-18T10:23:39.895Z,103886.69
2023-04-18T10:24:56.219Z,103879.44
2023-04-18T10:25:59.578Z,103883.97
2023-04-18T10:27:02.184Z,103882.38
2023-04-18T10:28:08.052Z,103877.91
2023-04-18T10:29:10.052Z,103882.25
2023-04-18T10:30:12.384Z,103870.75
2023-04-18T10:31:16.464Z,103879.66
2023-04-18T10:32:20.047Z,103879.06
2023-04-18T10:33:33.601Z,103879.66
2023-04-18T10:34:37.828Z,103878.78
2023-04-18T10:36:00.263Z,103879.53
2023-04-18T10:37:05.872Z,103883.75
2023-04-18T10:38:16.794Z,103884.63
2023-04-18T10:39:23.340Z,103881.16
2023-04-18T10:40:35.090Z,103875.09
2023-04-18T10:41:49.530Z,103886.56
2023-04-18T10:42:52.472Z,103879.22
2023-04-18T10:44:15.845Z,103877.59
2023-04-18T10:45:22.615Z,103880.94
2023-04-18T10:46:31.646Z,103876.84
2023-04-18T10:47:34.944Z,103885.06
2023-04-18T10:48:39.332Z,103878.09
2023-04-18T10:49:53.917Z,103876.00
2023-04-18T10:51:15.152Z,103889.91
2023-04-18T10:52:17.021Z,103886.34
2023-04-18T10:53:18.944Z,103886.56
2023-04-18T10:54:46.783Z,103887.34
2023-04-18T10:55:54.565Z,103891.75
2023-04-18T10:56:59.204Z,103892.84
2023-04-18T10:58:01.586Z,103881.41
2023-04-18T10:59:03.761Z,103888.53
2023-04-18T11:00:09.442Z,103892.22
2023-04-18T11:01:14.518Z,103893.94
2023-04-18T11:02:27.233Z,103891.22
2023-04-18T11:03:35.687Z,103883.22
2023-04-18T11:04:38.008Z,103879.66
2023-04-18T11:05:39.964Z,103885.81
2023-04-18T11:06:55.011Z,103883.31
2023-04-18T11:07:56.859Z,103883.13
2023-04-18T11:09:12.210Z,103886.56
2023-04-18T11:10:18.444Z,103885.06
2023-04-18T11:11:20.972Z,103886.56
2023-04-18T11:12:23.276Z,103887.56
2023-04-18T11:13:26.784Z,103881.56
2023-04-18T11:14:39.869Z,103883.13
2023-04-18T11:15:41.740Z,103889.38
2023-04-18T11:16:43.581Z,103885.06
2023-04-18T11:17:45.809Z,103882.38
2023-04-18T11:18:47.590Z,103883.31
2023-04-18T11:19:50.386Z,103873.66
2023-04-18T11:20:52.267Z,103886.00
2023-04-18T11:22:01.350Z,103889.66
2023-04-18T11:23:03.703Z,103891.97
2023-04-18T11:24:05.640Z,103885.06
2023-04-18T11:25:08.617Z,103889.59
2023-04-18T11:26:13.013Z,103887.66
2023-04-18T11:27:14.877Z,103892.09
2023-04-18T11:28:21.439Z,103886.81
2023-04-18T11:29:23.363Z,103884.25
2023-04-18T11:30:25.419Z,103893.94
2023-04-18T11:31:27.310Z,103880.63
2023-04-18T11:32:29.359Z,103884.25
2023-04-18T11:33:32.025Z,103895.00
2023-04-18T11:34:34.027Z,103892.31
2023-04-18T11:35:40.777Z,103896.72
2023-04-18T11:36:42.776Z,103895.00
2023-04-18T11:37:50.015Z,103896.63
2023-04-18T11:38:51.987Z,103892.75
2023-04-18T11:39:54.201Z,103891.97
2023-04-18T11:40:56.315Z,103890.25
2023-04-18T11:41:59.366Z,103888.72
2023-04-18T11:43:02.522Z,103895.53
2023-04-18T11:44:06.550Z,103893.94
2023-04-18T11:45:12.795Z,103869.69
2023-04-18T11:46:14.829Z,103884.09
2023-04-18T11:47:31.622Z,103894.69
2023-04-18T11:48:38.429Z,103898.91
2023-04-18T11:49:40.250Z,103901.59
2023-04-18T11:50:42.028Z,103900.09
2023-04-18T11:51:46.385Z,103895.53
2023-04-18T11:52:51.193Z,103896.50
2023-04-18T11:53:53.056Z,103895.66
2023-04-18T11:54:56.158Z,103897.38
2023-04-18T11:55:58.075Z,103902.78
2023-04-18T11:57:00.037Z,103894.03
2023-04-18T11:58:02.830Z,103906.47
2023-04-18T11:59:10.735Z,103894.91
2023-04-18T12:00:13.508Z,103894.78
2023-04-18T12:01:25.765Z,103895.75
2023-04-18T12:02:50.072Z,103905.16
2023-04-18T12:04:02.569Z,103906.78
2023-04-18T12:05:06.048Z,103879.19
2023-04-18T12:06:08.187Z,103902.56
2023-04-18T12:07:10.040Z,103894.03
2023-04-18T12:08:13.691Z,103906.47
2023-04-18T12:09:17.186Z,103900.41
2023-04-18T12:10:27.400Z,103899.34
2023-04-18T12:11:29.424Z,103901.06
2023-04-18T12:12:31.359Z,103896.03
2023-04-18T12:13:35.126Z,103901.66
2023-04-18T12:14:36.881Z,103899.53
2023-04-18T12:15:40.612Z,103898.59